sensor_id;sensor_type;location;lat;lon;timestamp;pressure;altitude;pressure_sealevel;temperature;humidity
13661;BME280;6903;49.480;11.102;2023-04-12T00:02:03;97454.66;;;4.80;100.00
13661;BME280;6903;49.480;11.102;2023-04-12T00:04:28;97449.44;;;4.80;100.00
13661;BME280;6903;49.480;11.102;2023-04-12T00:06:54;97450.56;;;4.76;100.00
13661;BME280;6903;49.480;11.102;2023-04-12T00:09:20;97439.47;;;4.72;100.00
13661;BME280;6903;49.480;11.102;2023-04-12T00:11:45;97441.25;;;4.72;100.00
13661;BME280;6903;49.480;11.102;2023-04-12T00:14:10;97433.44;;;4.72;100.00
13661;BME280;6903;49.480;11.102;2023-04-12T00:16:36;97434.34;;;4.71;100.00
13661;BME280;6903;49.480;11.102;2023-04-12T00:19:03;97427.47;;;4.70;100.00
13661;BME280;6903;49.480;11.102;2023-04-12T00:21:28;97429.00;;;4.72;100.00
13661;BME280;6903;49.480;11.102;2023-04-12T00:23:54;97428.75;;;4.77;100.00
13661;BME280;6903;49.480;11.102;2023-04-12T00:26:19;97420.72;;;4.80;100.00
13661;BME280;6903;49.480;11.102;2023-04-12T00:28:49;97407.66;;;4.80;100.00
13661;BME280;6903;49.480;11.102;2023-04-12T00:31:14;97407.75;;;4.78;100.00
13661;BME280;6903;49.480;11.102;2023-04-12T00:33:39;97400.84;;;4.77;100.00
13661;BME280;6903;49.480;11.102;2023-04-12T00:36:06;97398.22;;;4.77;100.00
13661;BME280;6903;49.480;11.102;2023-04-12T00:38:31;97400.09;;;4.75;100.00
13661;BME280;6903;49.480;11.102;2023-04-12T00:40:56;97396.75;;;4.73;100.00
13661;BME280;6903;49.480;11.102;2023-04-12T00:43:22;97392.75;;;4.68;100.00
13661;BME280;6903;49.480;11.102;2023-04-12T00:45:51;97388.50;;;4.67;100.00
13661;BME280;6903;49.480;11.102;2023-04-12T00:48:18;97371.13;;;4.66;100.00
13661;BME280;6903;49.480;11.102;2023-04-12T00:50:43;97371.13;;;4.66;100.00
13661;BME280;6903;49.480;11.102;2023-04-12T00:53:10;97373.63;;;4.67;100.00
13661;BME280;6903;49.480;11.102;2023-04-12T00:55:39;97371.88;;;4.68;100.00
13661;BME280;6903;49.480;11.102;2023-04-12T00:58:06;97377.00;;;4.69;100.00
13661;BME280;6903;49.480;11.102;2023-04-12T01:00:33;97379.50;;;4.71;100.00
13661;BME280;6903;49.480;11.102;2023-04-12T01:02:58;97372.41;;;4.73;100.00
13661;BME280;6903;49.480;11.102;2023-04-12T01:05:26;97367.94;;;4.75;100.00
13661;BME280;6903;49.480;11.102;2023-04-12T01:08:08;97359.25;;;4.74;100.00
13661;BME280;6903;49.480;11.102;2023-04-12T01:13:41;97362.19;;;4.70;100.00
13661;BME280;6903;49.480;11.102;2023-04-12T01:16:17;97360.31;;;4.72;100.00
13661;BME280;6903;49.480;11.102;2023-04-12T01:18:46;97348.28;;;4.69;100.00
13661;BME280;6903;49.480;11.102;2023-04-12T01:21:21;97347.97;;;4.74;100.00
13661;BME280;6903;49.480;11.102;2023-04-12T01:24:14;97348.50;;;4.79;100.00
13661;BME280;6903;49.480;11.102;2023-04-12T01:26:46;97341.31;;;4.82;100.00
13661;BME280;6903;49.480;11.102;2023-04-12T01:29:17;97333.38;;;4.84;100.00
13661;BME280;6903;49.480;11.102;2023-04-12T01:31:53;97328.88;;;4.86;100.00
13661;BME280;6903;49.480;11.102;2023-04-12T01:34:22;97332.34;;;4.86;100.00
13661;BME280;6903;49.480;11.102;2023-04-12T01:36:49;97320.00;;;4.88;100.00
13661;BME280;6903;49.480;11.102;2023-04-12T01:39:15;97318.97;;;4.91;100.00
13661;BME280;6903;49.480;11.102;2023-04-12T01:41:41;97322.22;;;4.94;100.00
13661;BME280;6903;49.480;11.102;2023-04-12T01:44:11;97324.53;;;4.99;100.00
13661;BME280;6903;49.480;11.102;2023-04-12T01:46:37;97333.09;;;5.01;100.00
13661;BME280;6903;49.480;11.102;2023-04-12T01:49:02;97323.56;;;5.00;100.00
13661;BME280;6903;49.480;11.102;2023-04-12T01:52:02;97326.19;;;5.00;100.00
13661;BME280;6903;49.480;11.102;2023-04-12T01:54:37;97316.69;;;4.99;100.00
13661;BME280;6903;49.480;11.102;2023-04-12T01:57:03;97317.44;;;5.01;100.00
13661;BME280;6903;49.480;11.102;2023-04-12T01:59:49;97311.25;;;5.02;100.00
13661;BME280;6903;49.480;11.102;2023-04-12T02:02:16;97313.75;;;5.03;100.00
13661;BME280;6903;49.480;11.102;2023-04-12T02:04:42;97313.75;;;5.03;100.00
13661;BME280;6903;49.480;11.102;2023-04-12T02:07:07;97309.16;;;5.07;100.00
13661;BME280;6903;49.480;11.102;2023-04-12T02:09:36;97301.31;;;5.07;100.00
13661;BME280;6903;49.480;11.102;2023-04-12T02:12:06;97302.88;;;5.09;100.00
13661;BME280;6903;49.480;11.102;2023-04-12T02:14:31;97295.88;;;5.10;100.00
13661;BME280;6903;49.480;11.102;2023-04-12T02:16:57;97295.78;;;5.11;100.00
13661;BME280;6903;49.480;11.102;2023-04-12T02:19:23;97290.56;;;5.11;100.00
13661;BME280;6903;49.480;11.102;2023-04-12T02:21:49;97283.56;;;5.12;100.00
13661;BME280;6903;49.480;11.102;2023-04-12T02:24:14;97277.38;;;5.13;100.00
13661;BME280;6903;49.480;11.102;2023-04-12T02:26:40;97273.75;;;5.15;100.00
13661;BME280;6903;49.480;11.102;2023-04-12T02:29:07;97270.91;;;5.18;100.00
13661;BME280;6903;49.480;11.102;2023-04-12T02:31:33;97269.00;;;5.20;100.00
13661;BME280;6903;49.480;11.102;2023-04-12T02:33:59;97259.19;;;5.24;100.00
13661;BME280;6903;49.480;11.102;2023-04-12T02:36:25;97258.06;;;5.28;100.00
13661;BME280;6903;49.480;11.102;2023-04-12T02:38:50;97246.44;;;5.32;100.00
13661;BME280;6903;49.480;11.102;2023-04-12T02:41:19;97255.13;;;5.32;100.00
13661;BME280;6903;49.480;11.102;2023-04-12T02:43:45;97249.56;;;5.37;100.00
13661;BME280;6903;49.480;11.102;2023-04-12T02:46:22;97252.59;;;5.43;100.00
13661;BME280;6903;49.480;11.102;2023-04-12T02:48:48;97251.44;;;5.47;100.00
13661;BME280;6903;49.480;11.102;2023-04-12T02:51:14;97246.81;;;5.51;100.00
13661;BME280;6903;49.480;11.102;2023-04-12T02:53:40;97242.31;;;5.53;100.00
13661;BME280;6903;49.480;11.102;2023-04-12T02:56:05;97249.81;;;5.57;100.00
13661;BME280;6903;49.480;11.102;2023-04-12T02:58:32;97236.56;;;5.60;100.00
13661;BME280;6903;49.480;11.102;2023-04-12T03:00:58;97248.56;;;5.63;100.00
13661;BME280;6903;49.480;11.102;2023-04-12T03:03:24;97250.13;;;5.65;100.00
13661;BME280;6903;49.480;11.102;2023-04-12T03:05:51;97246.47;;;5.68;100.00
13661;BME280;6903;49.480;11.102;2023-04-12T03:08:17;97245.50;;;5.69;100.00
13661;BME280;6903;49.480;11.102;2023-04-12T03:10:42;97235.56;;;5.74;100.00
13661;BME280;6903;49.480;11.102;2023-04-12T03:13:07;97225.81;;;5.76;100.00
13661;BME280;6903;49.480;11.102;2023-04-12T03:15:33;97228.22;;;5.79;100.00
13661;BME280;6903;49.480;11.102;2023-04-12T03:17:58;97222.88;;;5.80;100.00
13661;BME280;6903;49.480;11.102;2023-04-12T03:20:23;97225.41;;;5.82;100.00
13661;BME280;6903;49.480;11.102;2023-04-12T03:22:49;97214.84;;;5.84;100.00
13661;BME280;6903;49.480;11.102;2023-04-12T03:25:14;97203.34;;;5.86;100.00
13661;BME280;6903;49.480;11.102;2023-04-12T03:27:42;97208.44;;;5.88;100.00
13661;BME280;6903;49.480;11.102;2023-04-12T03:30:08;97205.00;;;5.87;100.00
13661;BME280;6903;49.480;11.102;2023-04-12T03:32:36;97204.03;;;5.88;100.00
13661;BME280;6903;49.480;11.102;2023-04-12T03:35:01;97192.53;;;5.91;100.00
13661;BME280;6903;49.480;11.102;2023-04-12T03:37:27;97198.38;;;5.94;100.00
13661;BME280;6903;49.480;11.102;2023-04-12T03:39:52;97191.13;;;5.98;100.00
13661;BME280;6903;49.480;11.102;2023-04-12T03:42:18;97191.63;;;6.03;100.00
13661;BME280;6903;49.480;11.102;2023-04-12T03:44:43;97194.13;;;6.04;100.00
13661;BME280;6903;49.480;11.102;2023-04-12T03:47:08;97196.41;;;6.09;100.00
13661;BME280;6903;49.480;11.102;2023-04-12T03:49:35;97188.34;;;6.12;100.00
13661;BME280;6903;49.480;11.102;2023-04-12T03:52:04;97186.66;;;6.11;100.00
13661;BME280;6903;49.480;11.102;2023-04-12T03:54:30;97185.84;;;6.10;100.00
13661;BME280;6903;49.480;11.102;2023-04-12T03:56:55;97194.38;;;6.12;100.00
13661;BME280;6903;49.480;11.102;2023-04-12T03:59:20;97187.16;;;6.16;100.00
13661;BME280;6903;49.480;11.102;2023-04-12T04:01:46;97181.78;;;6.17;100.00
13661;BME280;6903;49.480;11.102;2023-04-12T04:04:12;97181.47;;;6.22;100.00
13661;BME280;6903;49.480;11.102;2023-04-12T04:06:37;97180.53;;;6.23;100.00
13661;BME280;6903;49.480;11.102;2023-04-12T04:09:03;97180.28;;;6.26;100.00
13661;BME280;6903;49.480;11.102;2023-04-12T04:11:28;97179.22;;;6.28;100.00
13661;BME280;6903;49.480;11.102;2023-04-12T04:13:53;97167.81;;;6.29;100.00
13661;BME280;6903;49.480;11.102;2023-04-12T04:16:19;97172.94;;;6.31;100.00
13661;BME280;6903;49.480;11.102;2023-04-12T04:18:44;97164.97;;;6.32;100.00
13661;BME280;6903;49.480;11.102;2023-04-12T04:21:10;97171.63;;;6.36;100.00
13661;BME280;6903;49.480;11.102;2023-04-12T04:23:35;97167.22;;;6.37;100.00
13661;BME280;6903;49.480;11.102;2023-04-12T04:26:04;97168.91;;;6.38;100.00
13661;BME280;6903;49.480;11.102;2023-04-12T04:28:30;97154.75;;;6.40;100.00
13661;BME280;6903;49.480;11.102;2023-04-12T04:30:59;97155.47;;;6.42;100.00
13661;BME280;6903;49.480;11.102;2023-04-12T04:33:28;97150.00;;;6.45;100.00
13661;BME280;6903;49.480;11.102;2023-04-12T04:35:54;97149.75;;;6.48;100.00
13661;BME280;6903;49.480;11.102;2023-04-12T04:38:20;97151.53;;;6.48;100.00
13661;BME280;6903;49.480;11.102;2023-04-12T04:40:49;97144.41;;;6.50;100.00
13661;BME280;6903;49.480;11.102;2023-04-12T04:43:17;97127.41;;;6.55;100.00
13661;BME280;6903;49.480;11.102;2023-04-12T04:45:42;97124.66;;;6.57;100.00
13661;BME280;6903;49.480;11.102;2023-04-12T04:48:08;97130.50;;;6.60;100.00
13661;BME280;6903;49.480;11.102;2023-04-12T04:50:33;97135.63;;;6.62;100.00
13661;BME280;6903;49.480;11.102;2023-04-12T04:52:58;97141.56;;;6.64;100.00
13661;BME280;6903;49.480;11.102;2023-04-12T04:55:24;97148.25;;;6.68;100.00
13661;BME280;6903;49.480;11.102;2023-04-12T04:57:49;97146.47;;;6.68;100.00
13661;BME280;6903;49.480;11.102;2023-04-12T05:00:15;97141.13;;;6.70;100.00
13661;BME280;6903;49.480;11.102;2023-04-12T05:02:41;97145.28;;;6.72;100.00
13661;BME280;6903;49.480;11.102;2023-04-12T05:05:11;97145.03;;;6.75;100.00
13661;BME280;6903;49.480;11.102;2023-04-12T05:07:40;97139.56;;;6.78;100.00
13661;BME280;6903;49.480;11.102;2023-04-12T05:10:08;97139.56;;;6.78;100.00
13661;BME280;6903;49.480;11.102;2023-04-12T05:12:33;97134.06;;;6.81;100.00
13661;BME280;6903;49.480;11.102;2023-04-12T05:14:58;97136.69;;;6.81;100.00
13661;BME280;6903;49.480;11.102;2023-04-12T05:17:24;97130.53;;;6.82;100.00
13661;BME280;6903;49.480;11.102;2023-04-12T05:19:49;97118.25;;;6.83;100.00
13661;BME280;6903;49.480;11.102;2023-04-12T05:22:14;97118.59;;;6.89;100.00
13661;BME280;6903;49.480;11.102;2023-04-12T05:24:44;97117.06;;;6.87;100.00
13661;BME280;6903;49.480;11.102;2023-04-12T05:27:09;97114.78;;;6.82;100.00
13661;BME280;6903;49.480;11.102;2023-04-12T05:29:34;97110.97;;;6.86;100.00
13661;BME280;6903;49.480;11.102;2023-04-12T05:32:01;97109.06;;;6.88;100.00
13661;BME280;6903;49.480;11.102;2023-04-12T05:34:26;97105.28;;;6.92;100.00
13661;BME280;6903;49.480;11.102;2023-04-12T05:36:51;97101.44;;;6.96;100.00
13661;BME280;6903;49.480;11.102;2023-04-12T05:39:17;97098.56;;;6.99;100.00
13661;BME280;6903;49.480;11.102;2023-04-12T05:41:42;97097.03;;;7.08;100.00
13661;BME280;6903;49.480;11.102;2023-04-12T05:44:07;97088.66;;;7.14;100.00
13661;BME280;6903;49.480;11.102;2023-04-12T05:46:33;97097.72;;;7.21;100.00
13661;BME280;6903;49.480;11.102;2023-04-12T05:48:58;97090.09;;;7.29;100.00
13661;BME280;6903;49.480;11.102;2023-04-12T05:51:23;97088.06;;;7.33;100.00
13661;BME280;6903;49.480;11.102;2023-04-12T05:53:48;97081.34;;;7.40;100.00
13661;BME280;6903;49.480;11.102;2023-04-12T05:56:14;97078.25;;;7.46;100.00
13661;BME280;6903;49.480;11.102;2023-04-12T05:58:40;97087.38;;;7.51;100.00
13661;BME280;6903;49.480;11.102;2023-04-12T06:01:05;97084.38;;;7.56;100.00
13661;BME280;6903;49.480;11.102;2023-04-12T06:03:30;97088.19;;;7.63;100.00
13661;BME280;6903;49.480;11.102;2023-04-12T06:05:56;97081.97;;;7.64;100.00
13661;BME280;6903;49.480;11.102;2023-04-12T06:08:21;97083.66;;;7.65;100.00
13661;BME280;6903;49.480;11.102;2023-04-12T06:10:47;97078.88;;;7.70;100.00
13661;BME280;6903;49.480;11.102;2023-04-12T06:13:12;97073.84;;;7.78;100.00
13661;BME280;6903;49.480;11.102;2023-04-12T06:15:37;97070.38;;;7.77;100.00
13661;BME280;6903;49.480;11.102;2023-04-12T06:18:02;97062.75;;;7.74;100.00
13661;BME280;6903;49.480;11.102;2023-04-12T06:20:28;97060.00;;;7.76;100.00
13661;BME280;6903;49.480;11.102;2023-04-12T06:22:53;97065.25;;;7.76;100.00
13661;BME280;6903;49.480;11.102;2023-04-12T06:25:19;97067.16;;;7.74;100.00
13661;BME280;6903;49.480;11.102;2023-04-12T06:27:44;97054.63;;;7.77;100.00
13661;BME280;6903;49.480;11.102;2023-04-12T06:30:10;97049.50;;;7.76;100.00
13661;BME280;6903;49.480;11.102;2023-04-12T06:32:35;97058.50;;;7.62;100.00
13661;BME280;6903;49.480;11.102;2023-04-12T06:35:03;97065.41;;;7.63;100.00
13661;BME280;6903;49.480;11.102;2023-04-12T06:37:28;97057.75;;;7.71;100.00
13661;BME280;6903;49.480;11.102;2023-04-12T06:39:53;97054.50;;;7.79;100.00
13661;BME280;6903;49.480;11.102;2023-04-12T06:42:19;97040.84;;;7.85;100.00
13661;BME280;6903;49.480;11.102;2023-04-12T06:44:44;97037.75;;;7.91;100.00
13661;BME280;6903;49.480;11.102;2023-04-12T06:47:09;97042.28;;;7.89;100.00
13661;BME280;6903;49.480;11.102;2023-04-12T06:49:35;97036.50;;;7.95;100.00
13661;BME280;6903;49.480;11.102;2023-04-12T06:52:00;97042.03;;;7.92;100.00
13661;BME280;6903;49.480;11.102;2023-04-12T06:54:25;97035.31;;;7.99;100.00
13661;BME280;6903;49.480;11.102;2023-04-12T06:56:51;97042.94;;;8.02;100.00
13661;BME280;6903;49.480;11.102;2023-04-12T06:59:16;97028.97;;;8.01;100.00
13661;BME280;6903;49.480;11.102;2023-04-12T07:01:41;97023.66;;;7.92;100.00
13661;BME280;6903;49.480;11.102;2023-04-12T07:04:07;97020.97;;;8.03;100.00
13661;BME280;6903;49.480;11.102;2023-04-12T07:06:32;97017.50;;;8.02;100.00
13661;BME280;6903;49.480;11.102;2023-04-12T07:08:58;97009.25;;;8.07;100.00
13661;BME280;6903;49.480;11.102;2023-04-12T07:11:23;97003.41;;;8.03;100.00
13661;BME280;6903;49.480;11.102;2023-04-12T07:13:49;97004.13;;;8.05;100.00
13661;BME280;6903;49.480;11.102;2023-04-12T07:16:16;97007.88;;;8.12;100.00
13661;BME280;6903;49.480;11.102;2023-04-12T07:18:41;97009.75;;;8.21;100.00
13661;BME280;6903;49.480;11.102;2023-04-12T07:21:06;97005.22;;;8.23;100.00
13661;BME280;6903;49.480;11.102;2023-04-12T07:23:32;97005.31;;;8.22;100.00
13661;BME280;6903;49.480;11.102;2023-04-12T07:26:01;96998.22;;;8.13;100.00
13661;BME280;6903;49.480;11.102;2023-04-12T07:28:26;97002.06;;;8.09;100.00
13661;BME280;6903;49.480;11.102;2023-04-12T07:30:52;96995.16;;;8.08;100.00
13661;BME280;6903;49.480;11.102;2023-04-12T07:33:17;96993.38;;;8.08;100.00
13661;BME280;6903;49.480;11.102;2023-04-12T07:35:42;96990.34;;;8.13;100.00
13661;BME280;6903;49.480;11.102;2023-04-12T07:38:07;96989.38;;;8.14;100.00
13661;BME280;6903;49.480;11.102;2023-04-12T07:40:33;96980.75;;;8.23;100.00
13661;BME280;6903;49.480;11.102;2023-04-12T07:42:58;96978.94;;;8.23;100.00
13661;BME280;6903;49.480;11.102;2023-04-12T07:45:23;96971.91;;;8.24;100.00
13661;BME280;6903;49.480;11.102;2023-04-12T07:47:49;96975.25;;;8.26;100.00
13661;BME280;6903;49.480;11.102;2023-04-12T07:50:14;96975.03;;;8.38;100.00
13661;BME280;6903;49.480;11.102;2023-04-12T07:52:40;96965.91;;;8.42;100.00
13661;BME280;6903;49.480;11.102;2023-04-12T07:55:06;96969.13;;;8.55;100.00
13661;BME280;6903;49.480;11.102;2023-04-12T07:57:31;96961.09;;;8.57;100.00
13661;BME280;6903;49.480;11.102;2023-04-12T07:59:56;96958.19;;;8.50;100.00
13661;BME280;6903;49.480;11.102;2023-04-12T08:02:22;96949.94;;;8.65;100.00
13661;BME280;6903;49.480;11.102;2023-04-12T08:04:51;96947.06;;;8.77;100.00
13661;BME280;6903;49.480;11.102;2023-04-12T08:07:16;96954.28;;;8.94;100.00
13661;BME280;6903;49.480;11.102;2023-04-12T08:09:42;96948.78;;;9.07;100.00
13661;BME280;6903;49.480;11.102;2023-04-12T08:12:07;96938.13;;;8.99;100.00
13661;BME280;6903;49.480;11.102;2023-04-12T08:14:32;96928.16;;;9.12;100.00
13661;BME280;6903;49.480;11.102;2023-04-12T08:16:58;96924.97;;;9.27;100.00
13661;BME280;6903;49.480;11.102;2023-04-12T08:19:23;96922.50;;;9.35;100.00
13661;BME280;6903;49.480;11.102;2023-04-12T08:21:48;96919.28;;;9.41;100.00
13661;BME280;6903;49.480;11.102;2023-04-12T08:24:14;96918.84;;;9.55;100.00
13661;BME280;6903;49.480;11.102;2023-04-12T08:26:39;96916.34;;;9.63;100.00
13661;BME280;6903;49.480;11.102;2023-04-12T08:29:05;96918.84;;;9.74;100.00
13661;BME280;6903;49.480;11.102;2023-04-12T08:31:31;96917.88;;;9.75;100.00
13661;BME280;6903;49.480;11.102;2023-04-12T08:33:57;96912.03;;;9.72;100.00
13661;BME280;6903;49.480;11.102;2023-04-12T08:36:24;96904.69;;;9.75;100.00
13661;BME280;6903;49.480;11.102;2023-04-12T08:38:49;96910.38;;;9.80;100.00
13661;BME280;6903;49.480;11.102;2023-04-12T08:41:17;96898.56;;;9.84;100.00
13661;BME280;6903;49.480;11.102;2023-04-12T08:43:43;96893.69;;;9.99;100.00
13661;BME280;6903;49.480;11.102;2023-04-12T08:46:15;96901.13;;;10.03;100.00
13661;BME280;6903;49.480;11.102;2023-04-12T08:48:45;96892.16;;;9.96;100.00
13661;BME280;6903;49.480;11.102;2023-04-12T08:51:12;96894.50;;;9.99;100.00
13661;BME280;6903;49.480;11.102;2023-04-12T08:53:38;96892.56;;;10.11;100.00
13661;BME280;6903;49.480;11.102;2023-04-12T08:56:06;96877.47;;;10.13;100.00
13661;BME280;6903;49.480;11.102;2023-04-12T08:58:33;96870.38;;;10.14;100.00
13661;BME280;6903;49.480;11.102;2023-04-12T09:00:59;96868.88;;;10.11;100.00
13661;BME280;6903;49.480;11.102;2023-04-12T09:03:24;96865.25;;;10.12;100.00
13661;BME280;6903;49.480;11.102;2023-04-12T09:05:50;96857.88;;;10.16;100.00
13661;BME280;6903;49.480;11.102;2023-04-12T09:08:15;96856.09;;;10.16;100.00
13661;BME280;6903;49.480;11.102;2023-04-12T09:10:41;96854.72;;;10.02;100.00
13661;BME280;6903;49.480;11.102;2023-04-12T09:13:07;96851.00;;;10.05;100.00
13661;BME280;6903;49.480;11.102;2023-04-12T09:15:33;96844.09;;;9.94;100.00
13661;BME280;6903;49.480;11.102;2023-04-12T09:18:07;96847.13;;;9.99;100.00
13661;BME280;6903;49.480;11.102;2023-04-12T09:20:33;96835.78;;;9.89;100.00
13661;BME280;6903;49.480;11.102;2023-04-12T09:22:59;96824.81;;;9.94;100.00
13661;BME280;6903;49.480;11.102;2023-04-12T09:25:36;96827.22;;;9.78;100.00
13661;BME280;6903;49.480;11.102;2023-04-12T09:28:03;96825.44;;;9.78;100.00
13661;BME280;6903;49.480;11.102;2023-04-12T09:30:29;96814.59;;;9.54;100.00
13661;BME280;6903;49.480;11.102;2023-04-12T09:32:54;96803.56;;;9.32;100.00
13661;BME280;6903;49.480;11.102;2023-04-12T09:35:32;96803.28;;;9.35;100.00
13661;BME280;6903;49.480;11.102;2023-04-12T09:38:06;96796.50;;;9.32;100.00
13661;BME280;6903;49.480;11.102;2023-04-12T09:40:31;96788.91;;;9.20;100.00
13661;BME280;6903;49.480;11.102;2023-04-12T09:43:00;96796.41;;;9.15;100.00
13661;BME280;6903;49.480;11.102;2023-04-12T09:45:26;96792.41;;;9.01;100.00
13661;BME280;6903;49.480;11.102;2023-04-12T09:47:53;96788.66;;;8.94;100.00
13661;BME280;6903;49.480;11.102;2023-04-12T09:50:20;96786.59;;;8.88;100.00
13661;BME280;6903;49.480;11.102;2023-04-12T09:52:46;96779.16;;;8.84;100.00
13661;BME280;6903;49.480;11.102;2023-04-12T09:55:12;96777.09;;;8.78;100.00
13661;BME280;6903;49.480;11.102;2023-04-12T09:57:42;96771.97;;;8.86;100.00
13661;BME280;6903;49.480;11.102;2023-04-12T10:00:10;96779.28;;;8.92;100.00
13661;BME280;6903;49.480;11.102;2023-04-12T10:02:41;96772.63;;;8.97;100.00
13661;BME280;6903;49.480;11.102;2023-04-12T10:05:09;96763.78;;;8.98;100.00
13661;BME280;6903;49.480;11.102;2023-04-12T10:07:38;96764.03;;;9.05;100.00
13661;BME280;6903;49.480;11.102;2023-04-12T10:10:05;96758.63;;;9.06;100.00
13661;BME280;6903;49.480;11.102;2023-04-12T10:12:32;96758.47;;;9.17;100.00
13661;BME280;6903;49.480;11.102;2023-04-12T10:14:59;96753.91;;;9.19;100.00
13661;BME280;6903;49.480;11.102;2023-04-12T10:17:27;96744.06;;;9.12;100.00
13661;BME280;6903;49.480;11.102;2023-04-12T10:19:53;96743.22;;;9.30;100.00
13661;BME280;6903;49.480;11.102;2023-04-12T10:22:18;96736.53;;;9.45;100.00
13661;BME280;6903;49.480;11.102;2023-04-12T10:24:44;96746.56;;;9.59;100.00
13661;BME280;6903;49.480;11.102;2023-04-12T10:27:11;96734.97;;;9.79;100.00
13661;BME280;6903;49.480;11.102;2023-04-12T10:29:36;96731.84;;;9.93;100.00
13661;BME280;6903;49.480;11.102;2023-04-12T10:32:21;96724.63;;;9.95;100.00
13661;BME280;6903;49.480;11.102;2023-04-12T10:34:54;96719.28;;;10.15;100.00
13661;BME280;6903;49.480;11.102;2023-04-12T10:37:21;96707.09;;;10.04;100.00
13661;BME280;6903;49.480;11.102;2023-04-12T10:39:55;96704.16;;;9.89;100.00
13661;BME280;6903;49.480;11.102;2023-04-12T10:44:50;96706.63;;;9.91;100.00
13661;BME280;6903;49.480;11.102;2023-04-12T10:50:22;96683.53;;;9.85;100.00
13661;BME280;6903;49.480;11.102;2023-04-12T10:55:46;96677.09;;;9.97;100.00
13661;BME280;6903;49.480;11.102;2023-04-12T11:01:08;96678.75;;;10.68;100.00
13661;BME280;6903;49.480;11.102;2023-04-12T11:03:34;96671.66;;;10.69;100.00
13661;BME280;6903;49.480;11.102;2023-04-12T11:06:02;96677.91;;;10.85;100.00
13661;BME280;6903;49.480;11.102;2023-04-12T11:08:28;96657.38;;;10.97;100.00
13661;BME280;6903;49.480;11.102;2023-04-12T11:11:01;96658.13;;;10.89;100.00
13661;BME280;6903;49.480;11.102;2023-04-12T11:13:30;96668.56;;;10.99;100.00
13661;BME280;6903;49.480;11.102;2023-04-12T11:16:04;96672.50;;;10.95;100.00
13661;BME280;6903;49.480;11.102;2023-04-12T11:18:32;96663.28;;;10.99;100.00
13661;BME280;6903;49.480;11.102;2023-04-12T11:20:58;96661.69;;;11.06;100.00
13661;BME280;6903;49.480;11.102;2023-04-12T11:23:23;96672.41;;;11.04;100.00
13661;BME280;6903;49.480;11.102;2023-04-12T11:25:50;96667.50;;;11.09;100.00
13661;BME280;6903;49.480;11.102;2023-04-12T11:28:19;96669.66;;;11.14;100.00
13661;BME280;6903;49.480;11.102;2023-04-12T11:30:51;96657.59;;;11.11;100.00
13661;BME280;6903;49.480;11.102;2023-04-12T11:33:39;96662.19;;;11.01;100.00
13661;BME280;6903;49.480;11.102;2023-04-12T11:36:07;96653.75;;;10.98;100.00
13661;BME280;6903;49.480;11.102;2023-04-12T11:38:34;96654.06;;;10.95;100.00
13661;BME280;6903;49.480;11.102;2023-04-12T11:41:00;96656.91;;;11.01;100.00
13661;BME280;6903;49.480;11.102;2023-04-12T11:43:25;96651.16;;;11.06;100.00
13661;BME280;6903;49.480;11.102;2023-04-12T11:45:57;96640.59;;;11.06;100.00
13661;BME280;6903;49.480;11.102;2023-04-12T11:48:24;96644.56;;;11.10;100.00
13661;BME280;6903;49.480;11.102;2023-04-12T11:50:49;96636.53;;;11.19;100.00
13661;BME280;6903;49.480;11.102;2023-04-12T11:53:14;96634.16;;;11.42;100.00
13661;BME280;6903;49.480;11.102;2023-04-12T11:55:47;96619.28;;;11.67;100.00
13661;BME280;6903;49.480;11.102;2023-04-12T11:58:13;96607.41;;;11.71;100.00
13661;BME280;6903;49.480;11.102;2023-04-12T12:00:40;96610.25;;;11.77;100.00
13661;BME280;6903;49.480;11.102;2023-04-12T12:03:05;96611.72;;;11.80;100.00
13661;BME280;6903;49.480;11.102;2023-04-12T12:05:31;96599.69;;;11.85;100.00
13661;BME280;6903;49.480;11.102;2023-04-12T12:08:01;96612.72;;;11.79;100.00
13661;BME280;6903;49.480;11.102;2023-04-12T12:10:29;96605.41;;;11.73;100.00
13661;BME280;6903;49.480;11.102;2023-04-12T12:12:56;96609.88;;;11.64;100.00
13661;BME280;6903;49.480;11.102;2023-04-12T12:15:22;96614.59;;;11.53;100.00
13661;BME280;6903;49.480;11.102;2023-04-12T12:17:49;96611.88;;;11.36;100.00
13661;BME280;6903;49.480;11.102;2023-04-12T12:20:19;96610.38;;;11.34;100.00
13661;BME280;6903;49.480;11.102;2023-04-12T12:22:51;96607.13;;;11.40;100.00
13661;BME280;6903;49.480;11.102;2023-04-12T12:25:17;96609.78;;;11.48;100.00
13661;BME280;6903;49.480;11.102;2023-04-12T12:27:43;96611.94;;;11.53;100.00
13661;BME280;6903;49.480;11.102;2023-04-12T12:30:15;96595.09;;;11.45;100.00
13661;BME280;6903;49.480;11.102;2023-04-12T12:32:41;96596.44;;;11.50;100.00
13661;BME280;6903;49.480;11.102;2023-04-12T12:35:11;96590.63;;;11.46;100.00
13661;BME280;6903;49.480;11.102;2023-04-12T12:37:47;96587.16;;;11.45;100.00
13661;BME280;6903;49.480;11.102;2023-04-12T12:40:14;96563.63;;;11.60;100.00
13661;BME280;6903;49.480;11.102;2023-04-12T12:42:52;96564.34;;;11.70;100.00
13661;BME280;6903;49.480;11.102;2023-04-12T12:45:22;96553.78;;;11.86;100.00
13661;BME280;6903;49.480;11.102;2023-04-12T12:47:59;96549.53;;;12.01;100.00
13661;BME280;6903;49.480;11.102;2023-04-12T12:50:28;96548.34;;;12.04;100.00
13661;BME280;6903;49.480;11.102;2023-04-12T12:52:55;96536.94;;;12.11;100.00
13661;BME280;6903;49.480;11.102;2023-04-12T12:55:21;96535.13;;;12.20;100.00
13661;BME280;6903;49.480;11.102;2023-04-12T12:57:51;96533.34;;;12.20;100.00
13661;BME280;6903;49.480;11.102;2023-04-12T13:00:18;96539.75;;;12.10;100.00
13661;BME280;6903;49.480;11.102;2023-04-12T13:02:44;96539.59;;;12.11;100.00
13661;BME280;6903;49.480;11.102;2023-04-12T13:05:10;96532.66;;;12.10;100.00
13661;BME280;6903;49.480;11.102;2023-04-12T13:07:36;96544.75;;;12.13;100.00
13661;BME280;6903;49.480;11.102;2023-04-12T13:10:02;96527.38;;;12.18;100.00
13661;BME280;6903;49.480;11.102;2023-04-12T13:12:27;96529.34;;;12.16;100.00